createdAt,value
2018-05-12T00:00:53.205Z,8.13
2018-05-12T00:03:20.384Z,8.00
2018-05-12T00:05:46.854Z,7.83
2018-05-12T00:08:13.386Z,8.77
2018-05-12T00:10:39.742Z,7.83
2018-05-12T00:13:06.890Z,8.40
2018-05-12T00:15:33.289Z,7.67
2018-05-12T00:17:59.745Z,9.63
2018-05-12T00:20:26.260Z,9.20
2018-05-12T00:22:52.872Z,8.20
2018-05-12T00:25:19.358Z,9.00
2018-05-12T00:27:46.470Z,8.13
2018-05-12T00:30:12.870Z,8.40
2018-05-12T00:32:39.246Z,8.27
2018-05-12T00:35:05.682Z,9.03
2018-05-12T00:37:32.077Z,9.17
2018-05-12T00:39:58.685Z,9.80
2018-05-12T00:42:25.090Z,10.60
2018-05-12T00:44:51.603Z,9.27
2018-05-12T00:47:17.958Z,8.50
2018-05-12T00:49:44.660Z,9.60
2018-05-12T00:52:11.018Z,8.90
2018-05-12T00:54:37.494Z,8.87
2018-05-12T00:57:03.840Z,9.30
2018-05-12T00:59:30.205Z,10.50
2018-05-12T01:01:56.521Z,9.23
2018-05-12T01:04:22.873Z,11.20
2018-05-12T01:06:49.235Z,8.60
2018-05-12T01:09:15.603Z,8.90
2018-05-12T01:11:42.084Z,9.00
2018-05-12T01:14:09.469Z,9.67
2018-05-12T01:16:35.927Z,10.40
2018-05-12T01:19:02.672Z,10.03
2018-05-12T01:21:28.961Z,10.90
2018-05-12T01:23:55.295Z,10.10
2018-05-12T01:26:21.677Z,9.30
2018-05-12T01:28:48.296Z,9.40
2018-05-12T01:31:14.635Z,10.00
2018-05-12T01:33:41.723Z,10.43
2018-05-12T01:36:08.809Z,11.10
2018-05-12T01:38:35.156Z,10.40
2018-05-12T01:41:01.680Z,11.93
2018-05-12T01:43:28.052Z,10.87
2018-05-12T01:45:54.499Z,10.60
2018-05-12T01:48:20.918Z,10.50
2018-05-12T01:50:47.339Z,12.10
2018-05-12T01:53:14.399Z,9.90
2018-05-12T01:55:41.509Z,11.57
2018-05-12T01:58:08.592Z,11.13
2018-05-12T02:00:35.945Z,12.00
2018-05-12T02:03:04.207Z,11.57
2018-05-12T02:05:31.632Z,13.37
2018-05-12T02:07:58.181Z,12.33
2018-05-12T02:10:24.613Z,11.90
2018-05-12T02:12:51.076Z,16.27
2018-05-12T02:15:18.184Z,12.17
2018-05-12T02:17:44.593Z,14.33
2018-05-12T02:20:10.994Z,13.73
2018-05-12T02:22:38.126Z,15.57
2018-05-12T02:25:05.341Z,15.00
2018-05-12T02:27:31.795Z,15.30
2018-05-12T02:29:58.306Z,12.23
2018-05-12T02:32:24.675Z,12.90
2018-05-12T02:34:51.794Z,13.13
2018-05-12T02:37:18.143Z,14.20
2018-05-12T02:39:45.306Z,14.70
2018-05-12T02:42:12.461Z,13.70
2018-05-12T02:44:38.915Z,14.20
2018-05-12T02:47:05.367Z,14.30
2018-05-12T02:49:31.823Z,15.57
2018-05-12T02:51:58.301Z,14.47
2018-05-12T02:54:24.729Z,13.40
2018-05-12T02:56:51.229Z,14.03
2018-05-12T02:59:17.563Z,14.00
2018-05-12T03:01:44.015Z,13.07
2018-05-12T03:04:11.041Z,14.17
2018-05-12T03:06:38.388Z,12.40
2018-05-12T03:09:04.733Z,14.50
2018-05-12T03:11:31.168Z,14.80
2018-05-12T03:13:58.305Z,13.93
2018-05-12T03:16:24.724Z,15.30
2018-05-12T03:18:51.061Z,16.07
2018-05-12T03:21:17.633Z,15.37
2018-05-12T03:23:44.139Z,15.17
2018-05-12T03:26:10.586Z,14.30
2018-05-12T03:28:37.586Z,14.70
2018-05-12T03:31:04.118Z,14.57
2018-05-12T03:33:30.527Z,15.43
2018-05-12T03:35:56.871Z,17.30
2018-05-12T03:38:23.210Z,15.97
2018-05-12T03:40:49.586Z,14.60
2018-05-12T03:43:16.810Z,14.23
2018-05-12T03:45:43.348Z,13.23
2018-05-12T03:48:09.673Z,15.00
2018-05-12T03:50:36.003Z,13.60
2018-05-12T03:53:02.576Z,19.67
2018-05-12T03:55:28.921Z,14.50
2018-05-12T03:57:55.426Z,14.70
2018-05-12T04:00:22.524Z,15.63
2018-05-12T04:02:49.007Z,12.87
2018-05-12T04:05:28.423Z,13.23
2018-05-12T04:08:07.333Z,13.10
2018-05-12T04:10:42.534Z,15.60
2018-05-12T04:13:09.006Z,15.27
2018-05-12T04:15:35.475Z,13.17
2018-05-12T04:18:02.584Z,11.30
2018-05-12T04:20:29.007Z,10.53
2018-05-12T04:22:56.493Z,12.27
2018-05-12T04:25:22.849Z,14.00
2018-05-12T04:27:49.250Z,14.20
2018-05-12T04:30:15.806Z,14.73
2018-05-12T04:32:42.874Z,13.33
2018-05-12T04:35:09.382Z,13.23
2018-05-12T04:37:36.595Z,15.27
2018-05-12T04:40:02.930Z,14.90
2018-05-12T04:42:29.368Z,15.07
2018-05-12T04:44:55.741Z,15.70
2018-05-12T04:47:22.262Z,15.87
2018-05-12T04:49:49.421Z,15.43
2018-05-12T04:52:15.796Z,15.90
2018-05-12T04:54:42.442Z,16.50
2018-05-12T04:57:08.908Z,18.13
2018-05-12T04:59:36.054Z,17.20
2018-05-12T05:02:03.227Z,17.37
2018-05-12T05:04:29.585Z,16.70
2018-05-12T05:06:55.937Z,16.30
2018-05-12T05:09:22.465Z,18.17
2018-05-12T05:11:48.899Z,19.63
2018-05-12T05:14:15.368Z,20.97
2018-05-12T05:16:41.791Z,18.17
2018-05-12T05:19:08.305Z,17.13
2018-05-12T05:21:35.471Z,16.57
2018-05-12T05:24:01.764Z,20.00
2018-05-12T05:26:28.202Z,17.33
2018-05-12T05:28:54.727Z,22.37
2018-05-12T05:31:21.378Z,23.10
2018-05-12T05:33:47.749Z,21.40
2018-05-12T05:36:14.957Z,22.83
2018-05-12T05:38:41.334Z,21.30
2018-05-12T05:41:08.949Z,18.37
2018-05-12T05:43:35.467Z,21.57
2018-05-12T05:46:01.912Z,22.93
2018-05-12T05:48:28.392Z,21.40
2018-05-12T05:50:55.851Z,21.33
2018-05-12T05:53:23.056Z,21.63
2018-05-12T05:55:49.486Z,21.00
2018-05-12T05:58:16.021Z,24.37
2018-05-12T06:00:42.500Z,28.73
2018-05-12T06:03:08.884Z,21.27
2018-05-12T06:05:35.838Z,24.33
2018-05-12T06:08:02.373Z,25.43
2018-05-12T06:10:28.792Z,26.73
2018-05-12T06:12:56.224Z,25.83
2018-05-12T06:15:22.677Z,25.10
2018-05-12T06:17:49.297Z,25.80
2018-05-12T06:20:15.893Z,33.60
2018-05-12T06:22:43.037Z,29.87
2018-05-12T06:25:10.347Z,31.63
2018-05-12T06:27:37.228Z,32.67
2018-05-12T06:30:04.481Z,26.50
2018-05-12T06:32:31.886Z,32.63
2018-05-12T06:34:58.272Z,27.90
2018-05-12T06:37:25.379Z,30.07
2018-05-12T06:39:51.755Z,33.80
2018-05-12T06:42:19.126Z,30.10
2018-05-12T06:44:45.580Z,29.80
2018-05-12T06:47:11.889Z,35.33
2018-05-12T06:49:38.473Z,25.97
2018-05-12T06:52:04.984Z,34.77
2018-05-12T06:54:31.531Z,34.00
2018-05-12T06:56:58.006Z,30.60
2018-05-12T06:59:26.190Z,34.70
2018-05-12T07:01:52.684Z,39.13
2018-05-12T07:04:18.976Z,36.60
2018-05-12T07:06:45.401Z,35.30
2018-05-12T07:09:11.773Z,36.77
2018-05-12T07:11:38.261Z,34.60
2018-05-12T07:14:04.725Z,41.13
2018-05-12T07:16:31.162Z,34.07
2018-05-12T07:18:57.592Z,37.23
2018-05-12T07:21:24.016Z,36.40
2018-05-12T07:23:50.401Z,36.33
2018-05-12T07:26:17.710Z,38.00
2018-05-12T07:28:44.128Z,38.70
2018-05-12T07:31:10.526Z,35.10
2018-05-12T07:33:36.952Z,30.97
2018-05-12T07:36:03.372Z,40.77
2018-05-12T07:38:30.555Z,35.70
2018-05-12T07:40:57.228Z,41.53
2018-05-12T07:43:23.672Z,37.60
2018-05-12T07:45:50.205Z,30.43
2018-05-12T07:48:16.662Z,34.50
2018-05-12T07:50:43.847Z,33.17
2018-05-12T07:53:10.241Z,32.83
2018-05-12T07:55:37.458Z,31.53
2018-05-12T07:58:03.948Z,34.43
2018-05-12T08:00:30.525Z,36.43
2018-05-12T08:02:58.102Z,32.13
2018-05-12T08:05:24.537Z,33.60
2018-05-12T08:07:50.858Z,30.73
2018-05-12T08:10:17.384Z,32.17
2018-05-12T08:12:43.892Z,27.93
2018-05-12T08:15:10.682Z,31.43
2018-05-12T08:17:37.223Z,29.23
2018-05-12T08:20:04.489Z,29.73
2018-05-12T08:22:31.589Z,24.90
2018-05-12T08:24:57.904Z,24.20
2018-05-12T08:27:24.337Z,22.70
2018-05-12T08:29:50.890Z,24.00
2018-05-12T08:32:17.280Z,26.53
2018-05-12T08:34:43.687Z,23.40
2018-05-12T08:37:10.823Z,24.63
2018-05-12T08:39:37.239Z,25.97
2018-05-12T08:42:03.768Z,22.90
2018-05-12T08:44:30.184Z,20.17
2018-05-12T08:46:57.498Z,21.63
2018-05-12T08:49:24.801Z,19.33
2018-05-12T08:51:51.298Z,21.10
2018-05-12T08:54:17.752Z,47.93
2018-05-12T08:56:44.125Z,20.57
2018-05-12T08:59:11.281Z,21.67
2018-05-12T09:01:38.476Z,23.10
2018-05-12T09:04:04.948Z,21.13
2018-05-12T09:06:31.466Z,22.23
2018-05-12T09:08:57.902Z,25.27
2018-05-12T09:11:24.494Z,24.50
2018-05-12T09:13:50.867Z,18.33
2018-05-12T09:16:17.225Z,19.50
2018-05-12T09:18:43.525Z,18.90
2018-05-12T09:21:10.268Z,20.43
2018-05-12T09:23:36.809Z,17.20
2018-05-12T09:26:03.142Z,20.93
2018-05-12T09:28:29.650Z,13.30
2018-05-12T09:30:56.024Z,12.00
2018-05-12T09:33:23.206Z,12.20
2018-05-12T09:35:49.641Z,14.80
2018-05-12T09:38:16.383Z,14.73
2018-05-12T09:40:42.823Z,15.60
2018-05-12T09:43:09.610Z,12.67
2018-05-12T09:45:36.129Z,15.20
2018-05-12T09:48:02.575Z,20.30
2018-05-12T09:50:29.024Z,21.60
2018-05-12T09:52:59.310Z,23.97
2018-05-12T09:55:26.461Z,33.47
2018-05-12T09:57:54.020Z,28.10
2018-05-12T10:00:27.602Z,30.13
2018-05-12T10:02:54.284Z,28.40
2018-05-12T10:05:20.711Z,20.30
2018-05-12T10:07:47.940Z,27.80
2018-05-12T10:10:14.421Z,26.83
2018-05-12T10:12:41.720Z,21.30
2018-05-12T10:15:08.163Z,20.23
2018-05-12T10:17:34.673Z,27.90
2018-05-12T10:20:01.112Z,23.87
2018-05-12T10:22:27.902Z,23.77
2018-05-12T10:24:54.972Z,24.97
2018-05-12T10:27:21.447Z,29.30
2018-05-12T10:29:48.022Z,23.50
2018-05-12T10:32:15.339Z,23.23
2018-05-12T10:34:41.866Z,23.50
2018-05-12T10:37:08.551Z,24.17
2018-05-12T10:39:35.618Z,20.90
2018-05-12T10:42:03.097Z,17.67
2018-05-12T10:44:29.582Z,17.13
2018-05-12T10:46:56.753Z,17.67
2018-05-12T10:49:23.437Z,19.30
2018-05-12T10:51:49.888Z,16.40
2018-05-12T10:54:16.176Z,18.73
2018-05-12T10:56:42.542Z,17.80
2018-05-12T10:59:09.017Z,12.20
2018-05-12T11:01:35.665Z,14.70
2018-05-12T11:04:02.093Z,13.50
2018-05-12T11:06:28.464Z,14.23
2018-05-12T11:08:54.903Z,16.70
2018-05-12T11:11:21.291Z,14.37
2018-05-12T11:13:48.061Z,15.20
2018-05-12T11:16:14.597Z,15.53
2018-05-12T11:18:40.867Z,19.90
2018-05-12T11:21:08.025Z,18.70
2018-05-12T11:23:35.444Z,16.17
2018-05-12T11:26:01.982Z,21.80
2018-05-12T11:28:28.311Z,13.33
2018-05-12T11:30:54.944Z,17.67
2018-05-12T11:33:21.269Z,14.03
2018-05-12T11:35:47.623Z,15.40
2018-05-12T11:38:14.180Z,23.10
2018-05-12T11:40:40.799Z,16.93
2018-05-12T11:43:08.018Z,16.23
2018-05-12T11:45:34.518Z,16.70
2018-05-12T11:48:00.920Z,16.10
2018-05-12T11:50:28.463Z,19.07
2018-05-12T11:52:54.974Z,18.50
2018-05-12T11:55:21.333Z,15.70
2018-05-12T11:57:47.763Z,17.20
2018-05-12T12:00:14.213Z,20.53
2018-05-12T12:02:41.285Z,17.93
2018-05-12T12:05:07.878Z,17.80
2018-05-12T12:07:34.984Z,16.67
2018-05-12T12:10:01.487Z,16.87
2018-05-12T12:12:27.967Z,19.33
2018-05-12T12:14:54.910Z,14.03
2018-05-12T12:17:21.254Z,11.60
2018-05-12T12:19:47.588Z,13.10
2018-05-12T12:22:13.967Z,13.87
2018-05-12T12:24:40.305Z,15.30
2018-05-12T12:27:07.731Z,21.60
2018-05-12T12:29:34.944Z,15.47
2018-05-12T12:32:01.404Z,19.73
2018-05-12T12:34:27.806Z,15.00
2018-05-12T12:36:54.252Z,16.57
2018-05-12T12:39:20.610Z,13.97
2018-05-12T12:41:47.875Z,12.90
2018-05-12T12:44:14.299Z,15.33
2018-05-12T12:46:41.517Z,13.43
2018-05-12T12:49:07.925Z,13.63
2018-05-12T12:51:35.003Z,13.40
2018-05-12T12:54:01.590Z,16.33
2018-05-12T12:56:28.334Z,21.30
2018-05-12T12:58:54.696Z,13.23
2018-05-12T13:01:21.141Z,12.30
2018-05-12T13:03:47.481Z,13.00
2018-05-12T13:06:13.822Z,12.77
2018-05-12T13:08:41.013Z,17.27
2018-05-12T13:11:07.337Z,17.63
2018-05-12T13:13:33.745Z,16.90
2018-05-12T13:16:00.271Z,22.43
2018-05-12T13:18:26.641Z,19.40
2018-05-12T13:20:53.052Z,18.27
2018-05-12T13:23:19.477Z,22.43
2018-05-12T13:25:46.619Z,17.33
2018-05-12T13:28:13.754Z,21.13
2018-05-12T13:30:40.205Z,14.50
2018-05-12T13:33:07.465Z,17.77
2018-05-12T13:35:33.913Z,15.20
2018-05-12T13:38:00.325Z,16.50
2018-05-12T13:40:26.874Z,14.10
2018-05-12T13:42:53.925Z,21.70
2018-05-12T13:45:20.443Z,13.50
2018-05-12T13:47:47.585Z,14.20
2018-05-12T13:50:14.798Z,11.80
2018-05-12T13:52:41.347Z,14.40
2018-05-12T13:55:07.865Z,15.13
2018-05-12T13:57:34.246Z,15.13
2018-05-12T14:00:01.562Z,19.47
2018-05-12T14:02:28.121Z,18.30
2018-05-12T14:04:55.289Z,15.63
2018-05-12T14:07:21.955Z,16.67
2018-05-12T14:09:48.302Z,19.00
2018-05-12T14:12:14.764Z,19.53
2018-05-12T14:14:41.316Z,17.73
2018-05-12T14:17:08.474Z,16.93
2018-05-12T14:19:34.864Z,14.30
2018-05-12T14:22:01.292Z,17.23
2018-05-12T14:24:27.832Z,18.60
2018-05-12T14:26:54.250Z,21.30
2018-05-12T14:29:20.715Z,20.60
2018-05-12T14:31:47.926Z,18.27
2018-05-12T14:34:14.388Z,20.30
2018-05-12T14:36:40.807Z,22.10
2018-05-12T14:39:07.573Z,28.97
2018-05-12T14:41:35.376Z,25.80
2018-05-12T14:44:01.773Z,19.50
2018-05-12T14:46:28.838Z,19.40
2018-05-12T14:48:55.172Z,20.70
2018-05-12T14:51:21.543Z,18.33
2018-05-12T14:53:48.109Z,21.97
2018-05-12T14:56:14.563Z,21.00
2018-05-12T14:58:41.637Z,20.83
2018-05-12T15:01:08.225Z,16.93
2018-05-12T15:03:34.684Z,22.83
2018-05-12T15:06:01.430Z,20.90
2018-05-12T15:08:27.953Z,18.20
2018-05-12T15:10:55.152Z,15.40
2018-05-12T15:13:22.456Z,21.27
2018-05-12T15:15:48.943Z,17.00
2018-05-12T15:18:15.283Z,20.10
2018-05-12T15:20:41.664Z,20.77
2018-05-12T15:23:08.178Z,18.23
2018-05-12T15:25:35.325Z,36.87
2018-05-12T15:28:02.444Z,18.57
2018-05-12T15:30:28.887Z,18.20
2018-05-12T15:32:55.357Z,16.83
2018-05-12T15:35:21.675Z,18.23
2018-05-12T15:37:48.928Z,17.90
2018-05-12T15:40:16.012Z,17.97
2018-05-12T15:42:42.380Z,19.63
2018-05-12T15:45:08.848Z,17.73
2018-05-12T15:47:35.331Z,17.93
2018-05-12T15:50:01.931Z,18.90
2018-05-12T15:52:28.385Z,20.70
2018-05-12T15:54:54.789Z,16.93
2018-05-12T15:57:22.129Z,18.33
2018-05-12T15:59:48.540Z,17.57
2018-05-12T16:02:14.857Z,20.60
2018-05-12T16:04:41.392Z,17.97
2018-05-12T16:07:07.755Z,15.57
2018-05-12T16:09:34.884Z,15.50
2018-05-12T16:12:01.506Z,16.10
2018-05-12T16:14:28.822Z,16.23
2018-05-12T16:16:55.476Z,16.60
2018-05-12T16:19:22.013Z,14.60
2018-05-12T16:21:48.456Z,15.70
2018-05-12T16:24:14.941Z,15.23
2018-05-12T16:26:41.566Z,15.97
2018-05-12T16:29:08.880Z,21.23
2018-05-12T16:31:35.827Z,16.00
2018-05-12T16:34:02.360Z,17.97
2018-05-12T16:36:28.715Z,17.23
2018-05-12T16:38:55.953Z,20.30
2018-05-12T16:41:22.466Z,17.50
2018-05-12T16:43:50.131Z,19.10
2018-05-12T16:46:16.875Z,19.40
2018-05-12T16:48:43.507Z,17.33
2018-05-12T16:51:09.987Z,19.67
2018-05-12T16:53:36.333Z,16.17
2018-05-12T16:56:02.942Z,14.40
2018-05-12T16:58:29.440Z,43.60
2018-05-12T17:00:55.805Z,20.63
2018-05-12T17:03:22.166Z,15.80
2018-05-12T17:05:48.628Z,17.07
2018-05-12T17:08:15.034Z,21.77
2018-05-12T17:10:41.496Z,16.87
2018-05-12T17:13:07.877Z,16.23
2018-05-12T17:15:35.456Z,16.33
2018-05-12T17:18:01.932Z,17.00
2018-05-12T17:20:28.523Z,17.23
2018-05-12T17:22:54.920Z,16.10
2018-05-12T17:25:21.365Z,21.30
2018-05-12T17:27:48.693Z,22.27
2018-05-12T17:30:15.429Z,23.33
2018-05-12T17:32:41.807Z,26.67
2018-05-12T17:35:08.921Z,22.10
2018-05-12T17:37:35.415Z,25.70
2018-05-12T17:40:02.003Z,24.20
2018-05-12T17:42:29.226Z,25.60
2018-05-12T17:44:55.619Z,22.53
2018-05-12T17:47:22.068Z,21.60
2018-05-12T17:49:48.533Z,29.70
2018-05-12T17:52:14.983Z,26.07
2018-05-12T17:54:42.169Z,21.20
2018-05-12T17:57:08.579Z,23.43
2018-05-12T17:59:35.733Z,20.30
2018-05-12T18:02:03.166Z,27.67
2018-05-12T18:04:29.706Z,20.43
2018-05-12T18:06:56.453Z,28.30
2018-05-12T18:09:23.698Z,25.10
2018-05-12T18:11:50.974Z,26.63
2018-05-12T18:14:17.552Z,25.10
2018-05-12T18:16:44.111Z,25.30
2018-05-12T18:19:10.465Z,22.50
2018-05-12T18:21:37.955Z,31.07
2018-05-12T18:24:04.427Z,38.03
2018-05-12T18:26:30.847Z,32.17
2018-05-12T18:28:57.422Z,30.80
2018-05-12T18:31:24.842Z,32.60
2018-05-12T18:33:51.300Z,34.57
2018-05-12T18:36:18.496Z,30.67
2018-05-12T18:38:45.086Z,29.67
2018-05-12T18:41:12.361Z,34.70
2018-05-12T18:43:39.500Z,37.13
2018-05-12T18:46:06.687Z,41.93
2018-05-12T18:48:33.765Z,32.90
2018-05-12T18:51:00.337Z,31.73
2018-05-12T18:53:27.448Z,29.57
2018-05-12T18:55:53.868Z,37.80
2018-05-12T18:58:20.271Z,33.70
2018-05-12T19:00:46.801Z,48.83
2018-05-12T19:03:13.380Z,35.03
2018-05-12T19:05:39.858Z,34.53
2018-05-12T19:08:06.338Z,35.17
2018-05-12T19:10:32.664Z,31.33
2018-05-12T19:13:00.123Z,33.07
2018-05-12T19:15:26.557Z,36.30
2018-05-12T19:17:53.739Z,31.10
2018-05-12T19:20:20.932Z,35.50
2018-05-12T19:22:47.369Z,31.40
2018-05-12T19:25:13.856Z,35.90
2018-05-12T19:27:40.347Z,28.73
2018-05-12T19:30:06.836Z,29.13
2018-05-12T19:32:34.045Z,31.33
2018-05-12T19:35:00.414Z,28.13
2018-05-12T19:37:27.695Z,26.97
2018-05-12T19:39:54.136Z,25.10
2018-05-12T19:42:20.510Z,27.37
2018-05-12T19:44:46.857Z,27.80
2018-05-12T19:47:14.279Z,29.37
2018-05-12T19:49:40.856Z,26.37
2018-05-12T19:52:08.142Z,33.27
2018-05-12T19:54:34.503Z,30.40
2018-05-12T19:57:01.076Z,29.93
2018-05-12T19:59:28.345Z,32.00
2018-05-12T20:01:54.712Z,30.37
2018-05-12T20:04:21.122Z,32.87
2018-05-12T20:06:47.641Z,30.20
2018-05-12T20:09:14.133Z,32.23
2018-05-12T20:11:41.465Z,29.90
2018-05-12T20:14:07.845Z,29.20
2018-05-12T20:16:34.951Z,29.40
2018-05-12T20:19:01.393Z,28.77
2018-05-12T20:21:27.871Z,31.03
2018-05-12T20:23:55.248Z,25.50
2018-05-12T20:26:21.669Z,24.43
2018-05-12T20:28:48.344Z,29.60
2018-05-12T20:31:15.084Z,24.70
2018-05-12T20:33:41.456Z,24.80
2018-05-12T20:36:08.729Z,28.73
2018-05-12T20:38:36.216Z,26.60
2018-05-12T20:41:02.712Z,25.73
2018-05-12T20:43:29.060Z,30.33
2018-05-12T20:45:55.459Z,26.00
2018-05-12T20:48:22.763Z,28.23
2018-05-12T20:50:49.298Z,29.63
2018-05-12T20:53:15.786Z,33.10
2018-05-12T20:55:42.586Z,26.00
2018-05-12T20:58:08.887Z,27.77
2018-05-12T21:00:35.697Z,27.67
2018-05-12T21:03:02.143Z,29.53
2018-05-12T21:05:28.519Z,26.70
2018-05-12T21:07:56.182Z,25.63
2018-05-12T21:10:22.682Z,25.23
2018-05-12T21:12:49.232Z,29.00
2018-05-12T21:15:15.694Z,24.27
2018-05-12T21:17:42.231Z,26.57
2018-05-12T21:20:09.519Z,20.53
2018-05-12T21:22:36.014Z,25.00
2018-05-12T21:25:02.942Z,26.27
2018-05-12T21:27:29.347Z,24.40
2018-05-12T21:29:55.817Z,30.60
2018-05-12T21:32:22.289Z,25.00
2018-05-12T21:34:48.616Z,28.83
2018-05-12T21:37:15.036Z,27.10
2018-05-12T21:39:41.568Z,30.50
2018-05-12T21:42:08.008Z,27.53
2018-05-12T21:44:35.262Z,27.50
2018-05-12T21:47:02.356Z,28.03
2018-05-12T21:49:28.790Z,25.07
2018-05-12T21:51:55.215Z,27.40
2018-05-12T21:54:21.755Z,27.97
2018-05-12T21:56:49.008Z,25.70
2018-05-12T21:59:15.491Z,23.63
2018-05-12T22:01:42.730Z,29.60
2018-05-12T22:04:09.224Z,23.47
2018-05-12T22:06:36.617Z,24.53
2018-05-12T22:09:03.785Z,24.83
2018-05-12T22:11:30.368Z,21.70
2018-05-12T22:13:57.268Z,25.50
2018-05-12T22:16:23.750Z,25.37
2018-05-12T22:18:50.163Z,23.93
2018-05-12T22:21:16.819Z,24.30
2018-05-12T22:23:43.166Z,23.77
2018-05-12T22:26:10.232Z,26.80
2018-05-12T22:28:37.379Z,27.13
2018-05-12T22:31:04.564Z,24.20
2018-05-12T22:33:30.948Z,22.40
2018-05-12T22:35:57.297Z,23.23
2018-05-12T22:38:24.598Z,24.50
2018-05-12T22:40:50.996Z,24.30
2018-05-12T22:43:17.436Z,24.97
2018-05-12T22:45:44.009Z,25.90
2018-05-12T22:48:10.476Z,24.70
2018-05-12T22:50:37.618Z,23.83
2018-05-12T22:53:05.212Z,24.67
2018-05-12T22:55:31.806Z,25.00
2018-05-12T22:57:58.209Z,24.43
2018-05-12T23:00:27.712Z,24.90
2018-05-12T23:02:54.403Z,25.90
2018-05-12T23:05:20.777Z,17.97
2018-05-12T23:07:47.179Z,23.80
2018-05-12T23:10:13.774Z,19.33
2018-05-12T23:12:40.974Z,18.33
2018-05-12T23:15:07.740Z,21.17
2018-05-12T23:17:34.100Z,15.90
2018-05-12T23:20:00.514Z,19.50
2018-05-12T23:22:27.046Z,21.17
2018-05-12T23:24:55.303Z,20.57
2018-05-12T23:27:22.368Z,22.83
2018-05-12T23:29:48.791Z,21.07
2018-05-12T23:32:15.115Z,22.00
2018-05-12T23:34:41.679Z,21.80
2018-05-12T23:37:07.990Z,22.47
2018-05-12T23:39:34.400Z,25.23
2018-05-12T23:42:00.954Z,21.60
2018-05-12T23:44:27.391Z,20.03
2018-05-12T23:46:53.957Z,17.50
2018-05-12T23:49:21.373Z,22.63
2018-05-12T23:51:47.905Z,19.07
2018-05-12T23:54:14.302Z,20.30
2018-05-12T23:56:40.628Z,22.27
2018-05-12T23:59:07.102Z,18.37
